Latest Weather Observations for Canterbury

IDN60801

Issued at 11:05 pm EDT Saturday 1 November 2014 (issued every 30 minutes, with the page automatically refreshed every 10 minutes)

About weather observations | Map of weather stations | Latest weather observations for NSW | Other Formats
Station Details ID: 066194 Name: CANTERBURY RACECOURSE AWS Lat: -33.91 Lon: 151.11 Height: 3.0 m
Data from the previous 72 hours. | See also: Recent months at Canterbury
Date/Time
EDT
Temp
°C
App
Temp
°C
Dew
Point
Rel
Hum
%
Delta-T
°C
Wind Press
QNH
hPa
Press
MSL
hPa
Rain
since 9 am
mm
Dir
 
Spd
km/h
Gust
km/h
Spd
kts
Gust
kts
01/10:31pm 20.5 13.6 2.3 30 8.4 WSW 28 48 15 26 - - 9.8
01/10:30pm 20.5 13.6 2.8 31 8.3 WSW 28 44 15 24 - - 9.8
01/10:00pm 20.8 15.8 6.4 39 7.3 SW 22 35 12 19 - - 9.8
01/09:30pm 21.1 17.3 7.7 42 6.9 WSW 17 26 9 14 - - 9.8
01/09:00pm 21.3 17.0 7.2 40 7.2 W 19 28 10 15 - - 9.8
01/08:30pm 21.6 14.7 7.1 39 7.4 SW 33 56 18 30 - - 9.8
01/08:00pm 22.0 16.9 9.2 44 6.8 WSW 26 39 14 21 - - 9.8
01/07:30pm 22.9 17.2 11.0 47 6.6 WSW 32 48 17 26 - - 9.8
01/07:07pm 24.9 20.3 12.2 45 7.3 SW 28 46 15 25 - - 9.8
01/07:00pm 25.5 22.1 12.4 44 7.5 SW 22 43 12 23 - - 9.8
01/06:30pm 27.1 24.1 12.7 41 8.4 WSW 20 35 11 19 - - 9.8
01/06:00pm 27.7 25.7 14.0 43 8.2 WSW 17 26 9 14 - - 9.8
01/05:30pm 26.9 25.1 15.6 50 6.9 SW 19 32 10 17 - - 9.8
01/05:00pm 26.5 25.7 18.1 60 5.3 W 19 32 10 17 - - 9.6
01/04:30pm 25.7 26.9 19.1 67 4.2 NW 11 17 6 9 - - 9.0
01/04:02pm 21.3 22.5 18.3 83 1.9 - 9 - 5 - - - 9.0
01/04:00pm 22.6 14.6 14.7 61 4.7 NW 50 80 27 43 - - 4.6
01/03:59pm 23.9 19.8 15.9 61 4.8 NW 32 80 17 43 - - 3.2
01/03:56pm 25.6 22.4 16.2 56 5.8 NNW 28 48 15 26 - - 2.0
01/03:53pm 28.6 26.9 16.2 47 7.7 WNW 20 59 11 32 - - 0.8
01/03:30pm 32.1 29.8 14.7 35 10.7 WNW 20 39 11 21 - - 0.0
01/03:00pm 30.3 28.9 17.0 44 8.4 WNW 20 32 11 17 - - 0.0
01/02:52pm 29.6 28.2 17.1 47 7.9 WNW 20 32 11 17 - - 0.0
01/02:37pm 27.9 22.3 13.4 40 8.6 NW 35 54 19 29 - - 0.0
01/02:30pm 32.4 26.8 12.1 29 12.0 NNW 33 52 18 28 - - 0.0
01/02:24pm 32.8 28.1 11.9 28 12.3 NNW 28 52 15 28 - - 0.0
01/02:00pm 32.9 29.3 13.0 30 11.9 NW 24 41 13 22 - - 0.0
01/01:30pm 34.8 30.4 14.1 28 12.7 NW 30 50 16 27 - - 0.0
01/01:00pm 34.3 30.0 13.2 28 12.8 NW 28 46 15 25 - - 0.0
01/12:34pm 34.2 30.0 13.6 29 12.5 NW 28 46 15 25 - - 0.0
01/12:30pm 34.2 30.2 14.1 29 12.3 NW 28 41 15 22 - - 0.0
01/12:00pm 33.4 28.5 12.4 28 12.5 NNW 30 48 16 26 - - 0.0
01/11:44am 33.5 29.3 13.5 29 12.1 NNW 28 48 15 26 - - 0.0
01/11:30am 33.0 29.0 13.1 30 12.0 NNW 26 43 14 23 - - 0.0
01/11:07am 31.8 27.5 13.1 32 11.2 NW 28 50 15 27 - - 0.0
01/11:00am 32.2 28.9 13.9 33 11.1 NW 24 39 13 21 - - 0.0
01/10:30am 31.0 28.1 12.8 32 10.8 NNW 20 32 11 17 - - 0.0
01/10:00am 30.1 27.0 13.4 36 10.0 NNW 22 44 12 24 - - 0.0
01/09:30am 29.3 25.6 12.7 36 9.8 NNW 24 41 13 22 - - 0.0
01/09:00am 28.2 25.5 12.9 38 9.0 N 19 30 10 16 - - -
01/08:30am 27.5 24.3 11.9 38 9.0 NNW 20 33 11 18 - - -
01/08:00am 27.1 24.2 12.3 39 8.6 N 19 28 10 15 - - -
01/07:30am 26.3 24.5 12.0 41 8.2 N 13 20 7 11 - - -
01/07:00am 25.6 23.7 11.7 42 7.9 N 13 19 7 10 - - -
01/06:30am 25.3 23.3 11.5 42 7.8 N 13 20 7 11 - - -
01/06:00am 25.0 22.9 11.2 42 7.8 N 13 20 7 11 - - -
01/05:30am 25.8 23.2 10.8 39 8.4 N 15 24 8 13 - - -
01/05:00am 26.7 23.3 10.4 36 9.1 NNW 19 28 10 15 - - -
01/04:30am 26.9 23.8 10.2 35 9.3 N 17 24 9 13 - - -
01/04:00am 26.9 23.9 10.6 36 9.2 N 17 28 9 15 - - -
01/03:30am 24.7 23.8 11.3 43 7.5 N 7 11 4 6 - - -
01/03:00am 25.2 24.4 11.0 41 8.0 WNW 6 9 3 5 - - -
01/02:00am 26.6 23.6 10.7 37 8.9 NW 17 24 9 13 - - 0.0
01/01:30am 23.3 22.9 14.0 56 5.4 NW 9 19 5 10 - - 0.0
01/01:00am 21.6 22.8 17.4 77 2.6 N 7 11 4 6 - - 0.0
01/12:30am 21.3 22.7 17.7 80 2.2 NNE 7 9 4 5 - - 0.0
01/12:00am 21.4 22.4 17.8 80 2.2 NNE 9 15 5 8 - - 0.0
 
Date/Time
EDT
Temp
°C
App
Temp
°C
Dew
Point
Rel
Hum
%
Delta-T
°C
Wind Press
QNH
hPa
Press
MSL
hPa
Rain
since 9 am
mm
Dir
 
Spd
km/h
Gust
km/h
Spd
kts
Gust
kts
31/11:30pm 21.5 22.6 17.9 80 2.2 E 9 13 5 7 - - 0.0
31/11:00pm 21.8 22.6 17.4 76 2.7 E 9 13 5 7 - - 0.0
31/10:30pm 22.6 23.7 17.1 71 3.4 NNE 7 13 4 7 - - 0.0
31/10:00pm 23.3 23.1 16.6 66 4.1 NE 13 22 7 12 - - 0.0
31/09:30pm 23.8 23.1 15.3 59 5.1 NE 13 22 7 12 - - 0.0
31/09:00pm 24.1 22.4 14.8 56 5.5 NE 17 22 9 12 - - 0.0
31/08:30pm 24.5 22.4 13.7 51 6.3 NE 17 28 9 15 - - 0.0
31/08:00pm 25.0 23.1 12.9 47 7.0 NE 15 24 8 13 - - 0.0
31/07:30pm 25.6 23.3 11.7 42 7.9 NE 15 24 8 13 - - 0.0
31/07:00pm 26.5 23.7 11.4 39 8.6 NNE 17 28 9 15 - - 0.0
31/06:30pm 26.7 24.1 12.0 40 8.5 NE 17 24 9 13 - - 0.0
31/06:00pm 27.2 23.6 11.7 38 8.9 NNE 22 35 12 19 - - 0.0
31/05:30pm 28.4 24.9 12.3 37 9.4 NE 22 39 12 21 - - 0.0
31/05:00pm 27.2 24.5 12.8 41 8.4 NE 19 37 10 20 - - 0.0
31/04:30pm 28.3 25.3 11.8 36 9.5 ENE 19 30 10 16 - - 0.0
31/04:00pm 29.0 25.6 11.1 33 10.2 NE 20 33 11 18 - - 0.0
31/03:30pm 29.4 25.6 11.0 32 10.5 NE 22 35 12 19 - - 0.0
31/03:00pm 30.0 26.2 11.0 31 10.9 ENE 22 35 12 19 - - 0.0
31/02:30pm 30.3 26.7 11.8 32 10.8 ENE 22 30 12 16 - - 0.0
31/02:00pm 31.0 28.0 11.9 31 11.2 ENE 19 32 10 17 - - 0.0
31/01:30pm 31.9 28.7 13.2 32 11.2 E 22 26 12 14 - - 0.0
31/01:00pm 31.6 29.6 13.8 34 10.8 NE 17 22 9 12 - - 0.0
31/12:30pm 31.8 29.9 13.1 32 11.2 ENE 15 20 8 11 - - 0.0
31/12:00pm 31.6 30.0 11.4 29 11.8 NNE 11 20 6 11 - - 0.0
31/11:30am 30.1 28.4 11.1 31 10.9 NE 11 15 6 8 - - 0.0
31/11:00am 28.3 26.0 10.5 33 10.1 N 13 19 7 10 - - 0.0
31/10:30am 26.4 25.5 11.3 39 8.6 WNW 7 13 4 7 - - 0.0
31/10:00am 24.6 23.7 10.8 42 7.7 WNW 6 13 3 7 - - 0.0
31/09:30am 23.3 22.5 11.7 48 6.5 NW 7 13 4 7 - - 0.0
31/09:00am 21.5 20.4 12.1 55 5.3 W 9 13 5 7 - - 0.0
31/08:30am 20.1 19.7 12.3 61 4.4 NW 6 9 3 5 - - 0.0
31/08:00am 18.8 18.2 11.6 63 4.0 WNW 6 7 3 4 - - 0.0
31/07:31am 17.3 16.5 11.1 67 3.3 NW 6 9 3 5 - - 0.0
31/07:30am 17.3 16.5 11.1 67 3.3 NW 6 9 3 5 - - 0.0
31/07:12am 16.2 16.1 12.0 76 2.3 NW 4 7 2 4 - - 0.0
31/07:00am 15.3 16.0 12.1 81 1.7 CALM 0 0 0 0 - - 0.0
31/06:30am 13.1 13.7 11.8 92 0.7 CALM 0 0 0 0 - - 0.0
31/06:00am 12.5 12.8 10.9 90 0.8 CALM 0 0 0 0 - - 0.0
31/05:30am 13.0 13.5 11.6 91 0.7 CALM 0 0 0 0 - - 0.0
31/05:00am 13.0 13.4 11.2 89 0.9 CALM 0 0 0 0 - - 0.0
31/04:30am 13.4 13.8 11.3 87 1.1 CALM 0 0 0 0 - - 0.0
31/04:00am 13.7 14.1 11.4 86 1.2 CALM 0 0 0 0 - - 0.0
31/03:30am 13.9 14.3 11.1 83 1.5 CALM 0 0 0 0 - - 0.0
31/03:00am 14.4 14.9 11.7 84 1.4 CALM 0 0 0 0 - - 0.0
31/02:30am 15.1 16.1 13.3 89 1.0 CALM 0 0 0 0 - - 0.0
31/02:00am 14.5 15.0 11.6 83 1.6 CALM 0 0 0 0 - - 0.0
31/01:30am 15.0 15.7 12.1 83 1.6 CALM 0 0 0 0 - - 0.0
31/01:00am 14.9 15.4 11.5 80 1.8 CALM 0 0 0 0 - - 0.0
31/12:30am 15.5 16.0 11.5 77 2.2 CALM 0 0 0 0 - - 0.0
31/12:00am 15.9 16.4 11.7 76 2.3 CALM 0 0 0 0 - - 0.0
 
Date/Time
EDT
Temp
°C
App
Temp
°C
Dew
Point
Rel
Hum
%
Delta-T
°C
Wind Press
QNH
hPa
Press
MSL
hPa
Rain
since 9 am
mm
Dir
 
Spd
km/h
Gust
km/h
Spd
kts
Gust
kts
30/11:30pm 16.1 16.2 10.2 68 3.1 CALM 0 0 0 0 - - 0.0
30/11:00pm 17.3 17.4 10.2 63 3.8 CALM 0 0 0 0 - - 0.0
30/10:30pm 18.2 18.3 10.1 59 4.3 CALM 0 0 0 0 - - 0.0
30/10:00pm 20.1 20.1 9.7 51 5.6 CALM 0 2 0 1 - - 0.0
30/09:30pm 21.2 19.6 7.8 42 6.9 ENE 6 11 3 6 - - 0.0
30/09:00pm 21.4 19.4 6.9 39 7.4 ENE 7 11 4 6 - - 0.0
30/08:30pm 21.4 19.6 8.0 42 7.0 E 7 11 4 6 - - 0.0
30/08:00pm 22.1 19.3 7.1 38 7.7 E 11 15 6 8 - - 0.0
30/07:30pm 22.8 21.4 9.6 43 7.1 E 7 13 4 7 - - 0.0
30/07:00pm 24.1 21.5 7.7 35 8.6 E 11 17 6 9 - - 0.0
30/06:30pm 25.1 21.1 8.1 34 9.1 NE 19 28 10 15 - - 0.0
30/06:00pm 26.2 22.7 8.7 33 9.5 NE 17 26 9 14 - - 0.0
30/05:30pm 27.8 24.8 9.1 31 10.3 NE 15 22 8 12 - - 0.0
30/05:00pm 30.9 28.4 6.7 22 13.0 W 9 19 5 10 - - 0.0
30/04:30pm 30.5 25.2 5.0 20 13.3 NW 22 28 12 15 - - 0.0
30/04:00pm 30.2 27.2 6.1 22 12.8 W 11 19 6 10 - - 0.0
30/03:30pm 30.2 26.6 4.8 20 13.2 W 13 24 7 13 - - 0.0
30/03:00pm 29.9 26.9 5.9 22 12.7 NW 11 17 6 9 - - 0.0
30/02:30pm 29.7 26.6 5.7 22 12.6 WSW 11 20 6 11 - - 0.0
30/02:00pm 29.2 25.9 6.6 24 12.0 W 13 22 7 12 - - 0.0
30/01:30pm 28.2 23.4 5.7 24 11.7 W 20 30 11 16 - - 0.0
30/01:00pm 28.0 24.6 7.8 28 10.9 NW 15 24 8 13 - - 0.0
30/12:30pm 27.1 24.1 6.0 26 11.0 NNW 11 20 6 11 - - 0.0
30/12:00pm 27.0 24.8 8.0 30 10.2 NNW 9 17 5 9 - - 0.0
30/11:30am 26.4 25.0 9.7 35 9.2 NW 7 19 4 10 - - 0.0
30/11:00am 24.9 23.8 11.8 44 7.4 NW 9 13 5 7 - - 0.0
30/10:30am 23.8 24.0 14.2 55 5.7 NNW 6 11 3 6 - - 0.0
30/10:00am 22.9 23.4 15.5 63 4.4 NW 7 13 4 7 - - 0.0
30/09:30am 21.4 21.4 15.3 68 3.6 NW 9 15 5 8 - - 0.0
30/09:00am 19.9 19.2 14.3 70 3.2 WNW 11 17 6 9 - - 0.0
30/08:30am 18.7 18.4 14.4 76 2.5 NW 9 13 5 7 - - 0.0
30/08:00am 17.4 17.1 14.3 82 1.8 NW 9 13 5 7 - - 0.0
30/07:30am 15.9 16.1 14.1 89 1.0 WNW 6 9 3 5 - - 0.0
30/07:00am 14.4 15.3 13.9 97 0.3 WNW 2 6 1 3 - - 0.0
30/06:30am 12.9 13.7 12.4 97 0.3 CALM 0 0 0 0 - - 0.0
30/06:00am 12.4 13.0 11.8 96 0.3 CALM 0 0 0 0 - - 0.0
30/05:30am 12.8 13.4 12.0 95 0.4 CALM 0 0 0 0 - - 0.0
30/05:00am 12.5 13.0 11.6 94 0.5 CALM 0 0 0 0 - - 0.0
30/04:30am 13.1 13.8 12.2 94 0.5 CALM 0 0 0 0 - - 0.0
30/04:00am 13.6 14.4 12.7 94 0.5 CALM 0 0 0 0 - - 0.0
30/03:30am 13.6 14.4 12.7 94 0.5 CALM 0 0 0 0 - - 0.0
30/03:00am 13.5 14.2 12.1 91 0.8 CALM 0 0 0 0 - - 0.0
30/02:30am 14.2 15.0 12.6 90 0.9 CALM 0 0 0 0 - - 0.0
30/02:00am 14.6 15.4 12.6 88 1.1 CALM 0 0 0 0 - - 0.0
30/01:30am 15.2 16.1 12.9 86 1.3 CALM 0 0 0 0 - - 0.0
30/01:00am 16.2 16.9 13.5 84 1.5 N 2 6 1 3 - - 0.0
30/12:30am 16.7 17.4 13.4 81 1.9 N 2 7 1 4 - - 0.0
30/12:00am 17.2 17.1 13.3 78 2.2 N 6 9 3 5 - - 0.0
 
Date/Time
EDT
Temp
°C
App
Temp
°C
Dew
Point
Rel
Hum
%
Delta-T
°C
Wind Press
QNH
hPa
Press
MSL
hPa
Rain
since 9 am
mm
Dir
 
Spd
km/h
Gust
km/h
Spd
kts
Gust
kts
29/11:30pm 17.8 17.3 13.7 77 2.3 N 9 15 5 8 - - 0.0

Other Formats:

Comma delimited format used in spreadsheet applications
http://www.bom.gov.au/fwo/IDN60801/IDN60801.94766.axf

JavaScript Object Notation format (JSON) in row-major order
http://www.bom.gov.au/fwo/IDN60801/IDN60801.94766.json